sensor_id;sensor_type;location;lat;lon;timestamp;temperature;humidity
32612;DHT22;19030;49.478;8.986;2022-08-19T00:01:12;18.90;99.90
32612;DHT22;19030;49.478;8.986;2022-08-19T00:03:13;18.90;99.90
32612;DHT22;19030;49.478;8.986;2022-08-19T00:05:14;19.00;99.90
32612;DHT22;19030;49.478;8.986;2022-08-19T00:07:15;19.00;99.90
32612;DHT22;19030;49.478;8.986;2022-08-19T00:09:18;18.90;99.90
32612;DHT22;19030;49.478;8.986;2022-08-19T00:11:19;18.90;99.90
32612;DHT22;19030;49.478;8.986;2022-08-19T00:13:20;18.90;99.90
32612;DHT22;19030;49.478;8.986;2022-08-19T00:15:21;18.90;99.90
32612;DHT22;19030;49.478;8.986;2022-08-19T00:17:22;18.80;99.90
32612;DHT22;19030;49.478;8.986;2022-08-19T00:19:24;18.80;99.90
32612;DHT22;19030;49.478;8.986;2022-08-19T00:21:25;18.80;99.90
32612;DHT22;19030;49.478;8.986;2022-08-19T00:23:26;18.80;99.90
32612;DHT22;19030;49.478;8.986;2022-08-19T00:25:27;18.70;99.90
32612;DHT22;19030;49.478;8.986;2022-08-19T00:27:28;18.70;99.90
32612;DHT22;19030;49.478;8.986;2022-08-19T00:29:28;18.60;99.90
32612;DHT22;19030;49.478;8.986;2022-08-19T00:31:29;18.60;99.90
32612;DHT22;19030;49.478;8.986;2022-08-19T00:33:32;18.50;99.90
32612;DHT22;19030;49.478;8.986;2022-08-19T00:35:33;18.50;99.90
32612;DHT22;19030;49.478;8.986;2022-08-19T00:37:34;18.50;99.90
32612;DHT22;19030;49.478;8.986;2022-08-19T00:39:35;18.40;99.90
32612;DHT22;19030;49.478;8.986;2022-08-19T00:41:36;18.40;99.90
32612;DHT22;19030;49.478;8.986;2022-08-19T00:43:36;18.40;99.90
32612;DHT22;19030;49.478;8.986;2022-08-19T00:45:39;18.40;99.90
32612;DHT22;19030;49.478;8.986;2022-08-19T00:47:42;18.40;99.90
32612;DHT22;19030;49.478;8.986;2022-08-19T00:49:47;18.40;99.90
32612;DHT22;19030;49.478;8.986;2022-08-19T00:51:55;18.40;99.90
32612;DHT22;19030;49.478;8.986;2022-08-19T00:53:58;18.40;99.90
32612;DHT22;19030;49.478;8.986;2022-08-19T00:56:00;18.40;99.90
32612;DHT22;19030;49.478;8.986;2022-08-19T00:58:07;18.40;99.90
32612;DHT22;19030;49.478;8.986;2022-08-19T01:00:12;18.40;99.90
32612;DHT22;19030;49.478;8.986;2022-08-19T01:02:15;18.40;99.90
32612;DHT22;19030;49.478;8.986;2022-08-19T01:04:16;18.40;99.90
32612;DHT22;19030;49.478;8.986;2022-08-19T01:06:16;18.40;99.90
32612;DHT22;19030;49.478;8.986;2022-08-19T01:08:18;18.40;99.90
32612;DHT22;19030;49.478;8.986;2022-08-19T01:10:24;18.40;99.90
32612;DHT22;19030;49.478;8.986;2022-08-19T01:12:26;18.40;99.90
32612;DHT22;19030;49.478;8.986;2022-08-19T01:14:27;18.40;99.90
32612;DHT22;19030;49.478;8.986;2022-08-19T01:16:28;18.40;99.90
32612;DHT22;19030;49.478;8.986;2022-08-19T01:18:30;18.40;99.90
32612;DHT22;19030;49.478;8.986;2022-08-19T01:20:33;18.40;99.90
32612;DHT22;19030;49.478;8.986;2022-08-19T01:22:50;18.50;99.90
32612;DHT22;19030;49.478;8.986;2022-08-19T01:24:51;18.40;99.90
32612;DHT22;19030;49.478;8.986;2022-08-19T01:26:52;18.50;99.90
32612;DHT22;19030;49.478;8.986;2022-08-19T01:28:56;18.50;99.90
32612;DHT22;19030;49.478;8.986;2022-08-19T01:30:57;18.40;99.90
32612;DHT22;19030;49.478;8.986;2022-08-19T01:32:59;18.40;99.90
32612;DHT22;19030;49.478;8.986;2022-08-19T01:35:05;18.40;99.90
32612;DHT22;19030;49.478;8.986;2022-08-19T01:37:10;18.40;99.90
32612;DHT22;19030;49.478;8.986;2022-08-19T01:39:14;18.50;99.90
32612;DHT22;19030;49.478;8.986;2022-08-19T01:41:17;18.50;99.90
32612;DHT22;19030;49.478;8.986;2022-08-19T01:43:18;18.50;99.90
32612;DHT22;19030;49.478;8.986;2022-08-19T01:45:21;18.50;99.90
32612;DHT22;19030;49.478;8.986;2022-08-19T01:47:22;18.40;99.90
32612;DHT22;19030;49.478;8.986;2022-08-19T01:49:24;18.40;99.90
32612;DHT22;19030;49.478;8.986;2022-08-19T01:51:26;18.40;99.90
32612;DHT22;19030;49.478;8.986;2022-08-19T01:53:26;18.40;99.90
32612;DHT22;19030;49.478;8.986;2022-08-19T01:55:27;18.40;99.90
32612;DHT22;19030;49.478;8.986;2022-08-19T01:57:28;18.30;99.90
32612;DHT22;19030;49.478;8.986;2022-08-19T01:59:29;18.40;99.90
32612;DHT22;19030;49.478;8.986;2022-08-19T02:01:30;18.40;99.90
32612;DHT22;19030;49.478;8.986;2022-08-19T02:03:32;18.40;99.90
32612;DHT22;19030;49.478;8.986;2022-08-19T02:05:34;18.30;99.90
32612;DHT22;19030;49.478;8.986;2022-08-19T02:07:36;18.40;99.90
32612;DHT22;19030;49.478;8.986;2022-08-19T02:09:37;18.40;99.90
32612;DHT22;19030;49.478;8.986;2022-08-19T02:11:37;18.40;99.90
32612;DHT22;19030;49.478;8.986;2022-08-19T02:13:39;18.40;99.90
32612;DHT22;19030;49.478;8.986;2022-08-19T02:15:39;18.40;99.90
32612;DHT22;19030;49.478;8.986;2022-08-19T02:17:40;18.50;99.90
32612;DHT22;19030;49.478;8.986;2022-08-19T02:19:41;18.40;99.90
32612;DHT22;19030;49.478;8.986;2022-08-19T02:21:41;18.40;99.90
32612;DHT22;19030;49.478;8.986;2022-08-19T02:23:44;18.40;99.90
32612;DHT22;19030;49.478;8.986;2022-08-19T02:25:48;18.50;99.90
32612;DHT22;19030;49.478;8.986;2022-08-19T02:27:49;18.40;99.90
32612;DHT22;19030;49.478;8.986;2022-08-19T02:29:50;18.50;99.90
32612;DHT22;19030;49.478;8.986;2022-08-19T02:31:51;18.40;99.90
32612;DHT22;19030;49.478;8.986;2022-08-19T02:33:53;18.40;99.90
32612;DHT22;19030;49.478;8.986;2022-08-19T02:35:53;18.40;99.90
32612;DHT22;19030;49.478;8.986;2022-08-19T02:37:54;18.40;99.90
32612;DHT22;19030;49.478;8.986;2022-08-19T02:40:24;18.40;99.90
32612;DHT22;19030;49.478;8.986;2022-08-19T02:42:25;18.40;99.90
32612;DHT22;19030;49.478;8.986;2022-08-19T02:44:25;18.40;99.90
32612;DHT22;19030;49.478;8.986;2022-08-19T02:46:32;18.40;99.90
32612;DHT22;19030;49.478;8.986;2022-08-19T02:48:33;18.40;99.90
32612;DHT22;19030;49.478;8.986;2022-08-19T02:50:33;18.30;99.90
32612;DHT22;19030;49.478;8.986;2022-08-19T02:52:37;18.30;99.90
32612;DHT22;19030;49.478;8.986;2022-08-19T02:54:37;18.30;99.90
32612;DHT22;19030;49.478;8.986;2022-08-19T02:56:40;18.30;99.90
32612;DHT22;19030;49.478;8.986;2022-08-19T02:58:41;18.20;99.90
32612;DHT22;19030;49.478;8.986;2022-08-19T03:00:49;18.10;99.90
32612;DHT22;19030;49.478;8.986;2022-08-19T03:02:50;18.10;99.90
32612;DHT22;19030;49.478;8.986;2022-08-19T03:04:50;18.10;99.90
32612;DHT22;19030;49.478;8.986;2022-08-19T03:06:51;18.10;99.90
32612;DHT22;19030;49.478;8.986;2022-08-19T03:08:52;18.00;99.90
32612;DHT22;19030;49.478;8.986;2022-08-19T03:10:53;18.00;99.90
32612;DHT22;19030;49.478;8.986;2022-08-19T03:12:54;18.00;99.90
32612;DHT22;19030;49.478;8.986;2022-08-19T03:14:54;18.00;99.90
32612;DHT22;19030;49.478;8.986;2022-08-19T03:16:55;17.90;99.90
32612;DHT22;19030;49.478;8.986;2022-08-19T03:18:56;17.90;99.90
32612;DHT22;19030;49.478;8.986;2022-08-19T03:21:00;17.90;99.90
32612;DHT22;19030;49.478;8.986;2022-08-19T03:23:00;17.90;99.90
32612;DHT22;19030;49.478;8.986;2022-08-19T03:25:02;17.90;99.90
32612;DHT22;19030;49.478;8.986;2022-08-19T03:27:03;17.90;99.90
32612;DHT22;19030;49.478;8.986;2022-08-19T03:29:05;17.90;99.90
32612;DHT22;19030;49.478;8.986;2022-08-19T03:31:12;17.90;99.90
32612;DHT22;19030;49.478;8.986;2022-08-19T03:33:12;17.90;99.90
32612;DHT22;19030;49.478;8.986;2022-08-19T03:35:13;17.90;99.90
32612;DHT22;19030;49.478;8.986;2022-08-19T03:37:13;17.90;99.90
32612;DHT22;19030;49.478;8.986;2022-08-19T03:39:15;17.90;99.90
32612;DHT22;19030;49.478;8.986;2022-08-19T03:41:18;17.90;99.90
32612;DHT22;19030;49.478;8.986;2022-08-19T03:43:19;17.90;99.90
32612;DHT22;19030;49.478;8.986;2022-08-19T03:45:20;17.90;99.90
32612;DHT22;19030;49.478;8.986;2022-08-19T03:47:20;17.90;99.90
32612;DHT22;19030;49.478;8.986;2022-08-19T03:49:23;17.90;99.90
32612;DHT22;19030;49.478;8.986;2022-08-19T03:51:29;17.80;99.90
32612;DHT22;19030;49.478;8.986;2022-08-19T03:53:32;17.90;99.90
32612;DHT22;19030;49.478;8.986;2022-08-19T03:55:38;17.90;99.90
32612;DHT22;19030;49.478;8.986;2022-08-19T03:57:39;17.90;99.90
32612;DHT22;19030;49.478;8.986;2022-08-19T03:59:40;17.80;99.90
32612;DHT22;19030;49.478;8.986;2022-08-19T04:01:40;17.80;99.90
32612;DHT22;19030;49.478;8.986;2022-08-19T04:03:41;17.80;99.90
32612;DHT22;19030;49.478;8.986;2022-08-19T04:05:42;17.80;99.90
32612;DHT22;19030;49.478;8.986;2022-08-19T04:07:42;17.80;99.90
32612;DHT22;19030;49.478;8.986;2022-08-19T04:09:43;17.80;99.90
32612;DHT22;19030;49.478;8.986;2022-08-19T04:11:47;17.70;99.90
32612;DHT22;19030;49.478;8.986;2022-08-19T04:13:48;17.70;99.90
32612;DHT22;19030;49.478;8.986;2022-08-19T04:15:49;17.70;99.90
32612;DHT22;19030;49.478;8.986;2022-08-19T04:17:50;17.70;99.90
32612;DHT22;19030;49.478;8.986;2022-08-19T04:19:50;17.70;99.90
32612;DHT22;19030;49.478;8.986;2022-08-19T04:21:53;17.70;99.90
32612;DHT22;19030;49.478;8.986;2022-08-19T04:23:55;17.70;99.90
32612;DHT22;19030;49.478;8.986;2022-08-19T04:25:56;17.70;99.90
32612;DHT22;19030;49.478;8.986;2022-08-19T04:27:57;17.60;99.90
32612;DHT22;19030;49.478;8.986;2022-08-19T04:29:58;17.60;99.90
32612;DHT22;19030;49.478;8.986;2022-08-19T04:31:59;17.60;99.90
32612;DHT22;19030;49.478;8.986;2022-08-19T04:34:01;17.60;99.90
32612;DHT22;19030;49.478;8.986;2022-08-19T04:36:02;17.60;99.90
32612;DHT22;19030;49.478;8.986;2022-08-19T04:38:03;17.60;99.90
32612;DHT22;19030;49.478;8.986;2022-08-19T04:40:06;17.70;99.90
32612;DHT22;19030;49.478;8.986;2022-08-19T04:42:25;17.70;99.90
32612;DHT22;19030;49.478;8.986;2022-08-19T04:44:41;17.70;99.90
32612;DHT22;19030;49.478;8.986;2022-08-19T04:46:41;17.70;99.90
32612;DHT22;19030;49.478;8.986;2022-08-19T04:48:43;17.70;99.90
32612;DHT22;19030;49.478;8.986;2022-08-19T04:50:44;17.70;99.90
32612;DHT22;19030;49.478;8.986;2022-08-19T04:52:44;17.70;99.90
32612;DHT22;19030;49.478;8.986;2022-08-19T04:54:45;17.70;99.90
32612;DHT22;19030;49.478;8.986;2022-08-19T04:56:45;17.80;99.90
32612;DHT22;19030;49.478;8.986;2022-08-19T04:58:47;17.80;99.90
32612;DHT22;19030;49.478;8.986;2022-08-19T05:00:47;17.90;99.90
32612;DHT22;19030;49.478;8.986;2022-08-19T05:02:48;17.90;99.90
32612;DHT22;19030;49.478;8.986;2022-08-19T05:04:49;17.90;99.90
32612;DHT22;19030;49.478;8.986;2022-08-19T05:06:50;18.00;99.90
32612;DHT22;19030;49.478;8.986;2022-08-19T05:08:52;18.00;99.90
32612;DHT22;19030;49.478;8.986;2022-08-19T05:10:53;18.00;99.90
32612;DHT22;19030;49.478;8.986;2022-08-19T05:12:53;18.00;99.90
32612;DHT22;19030;49.478;8.986;2022-08-19T05:14:54;18.00;99.90
32612;DHT22;19030;49.478;8.986;2022-08-19T05:16:54;18.00;99.90
32612;DHT22;19030;49.478;8.986;2022-08-19T05:18:55;18.00;99.90
32612;DHT22;19030;49.478;8.986;2022-08-19T05:21:17;18.10;99.90
32612;DHT22;19030;49.478;8.986;2022-08-19T05:23:36;18.10;99.90
32612;DHT22;19030;49.478;8.986;2022-08-19T05:25:39;18.20;99.90
32612;DHT22;19030;49.478;8.986;2022-08-19T05:27:41;18.20;99.90
32612;DHT22;19030;49.478;8.986;2022-08-19T05:29:42;18.20;99.90
32612;DHT22;19030;49.478;8.986;2022-08-19T05:31:43;18.30;99.90
32612;DHT22;19030;49.478;8.986;2022-08-19T05:33:44;18.40;99.90
32612;DHT22;19030;49.478;8.986;2022-08-19T05:35:44;18.40;99.90
32612;DHT22;19030;49.478;8.986;2022-08-19T05:37:46;18.50;99.90
32612;DHT22;19030;49.478;8.986;2022-08-19T05:39:47;18.60;99.90
32612;DHT22;19030;49.478;8.986;2022-08-19T05:42:13;18.60;99.90
32612;DHT22;19030;49.478;8.986;2022-08-19T05:44:15;18.80;99.90
32612;DHT22;19030;49.478;8.986;2022-08-19T05:46:19;18.90;99.90
32612;DHT22;19030;49.478;8.986;2022-08-19T05:48:20;19.10;99.90
32612;DHT22;19030;49.478;8.986;2022-08-19T05:50:21;19.20;99.90
32612;DHT22;19030;49.478;8.986;2022-08-19T05:52:22;19.30;99.90
32612;DHT22;19030;49.478;8.986;2022-08-19T05:54:23;19.40;99.90
32612;DHT22;19030;49.478;8.986;2022-08-19T05:56:24;19.40;99.90
32612;DHT22;19030;49.478;8.986;2022-08-19T05:58:25;19.50;99.90
32612;DHT22;19030;49.478;8.986;2022-08-19T06:00:26;19.60;99.90
32612;DHT22;19030;49.478;8.986;2022-08-19T06:02:27;19.60;99.90
32612;DHT22;19030;49.478;8.986;2022-08-19T06:04:28;19.60;99.90
32612;DHT22;19030;49.478;8.986;2022-08-19T06:06:29;19.60;99.90
32612;DHT22;19030;49.478;8.986;2022-08-19T06:08:30;19.60;99.90
32612;DHT22;19030;49.478;8.986;2022-08-19T06:10:30;19.50;99.90
32612;DHT22;19030;49.478;8.986;2022-08-19T06:12:32;19.50;99.90
32612;DHT22;19030;49.478;8.986;2022-08-19T06:14:35;19.50;99.90
32612;DHT22;19030;49.478;8.986;2022-08-19T06:16:38;19.60;99.90
32612;DHT22;19030;49.478;8.986;2022-08-19T06:18:38;19.60;99.90
32612;DHT22;19030;49.478;8.986;2022-08-19T06:20:40;19.50;99.90
32612;DHT22;19030;49.478;8.986;2022-08-19T06:22:43;19.60;99.90
32612;DHT22;19030;49.478;8.986;2022-08-19T06:24:44;19.60;99.90
32612;DHT22;19030;49.478;8.986;2022-08-19T06:26:47;19.70;99.90
32612;DHT22;19030;49.478;8.986;2022-08-19T06:28:48;19.70;99.90
32612;DHT22;19030;49.478;8.986;2022-08-19T06:30:48;19.70;99.90
32612;DHT22;19030;49.478;8.986;2022-08-19T06:32:49;19.70;99.90
32612;DHT22;19030;49.478;8.986;2022-08-19T06:34:50;19.70;99.90
32612;DHT22;19030;49.478;8.986;2022-08-19T06:36:51;19.70;99.90
32612;DHT22;19030;49.478;8.986;2022-08-19T06:38:53;19.70;99.90
32612;DHT22;19030;49.478;8.986;2022-08-19T06:41:03;19.70;99.90
32612;DHT22;19030;49.478;8.986;2022-08-19T06:43:04;19.80;99.90
32612;DHT22;19030;49.478;8.986;2022-08-19T06:45:06;19.90;99.90
32612;DHT22;19030;49.478;8.986;2022-08-19T06:47:12;20.00;99.90
32612;DHT22;19030;49.478;8.986;2022-08-19T06:49:13;20.10;99.90
32612;DHT22;19030;49.478;8.986;2022-08-19T06:51:16;20.20;99.90
32612;DHT22;19030;49.478;8.986;2022-08-19T06:53:18;20.30;99.90
32612;DHT22;19030;49.478;8.986;2022-08-19T06:55:19;20.40;99.90
32612;DHT22;19030;49.478;8.986;2022-08-19T06:57:20;20.60;99.90
32612;DHT22;19030;49.478;8.986;2022-08-19T06:59:23;20.70;99.90
32612;DHT22;19030;49.478;8.986;2022-08-19T07:01:27;20.80;99.90
32612;DHT22;19030;49.478;8.986;2022-08-19T07:03:33;20.90;99.90
32612;DHT22;19030;49.478;8.986;2022-08-19T07:05:42;21.10;99.90
32612;DHT22;19030;49.478;8.986;2022-08-19T07:07:42;21.20;99.90
32612;DHT22;19030;49.478;8.986;2022-08-19T07:09:44;21.30;99.90
32612;DHT22;19030;49.478;8.986;2022-08-19T07:11:46;21.30;99.90
32612;DHT22;19030;49.478;8.986;2022-08-19T07:13:47;21.30;99.90
32612;DHT22;19030;49.478;8.986;2022-08-19T07:15:49;21.40;99.90
32612;DHT22;19030;49.478;8.986;2022-08-19T07:17:50;21.40;99.90
32612;DHT22;19030;49.478;8.986;2022-08-19T07:19:51;21.40;99.90
32612;DHT22;19030;49.478;8.986;2022-08-19T07:21:53;21.40;99.90
32612;DHT22;19030;49.478;8.986;2022-08-19T07:23:55;21.40;99.90
32612;DHT22;19030;49.478;8.986;2022-08-19T07:25:56;21.40;99.90
32612;DHT22;19030;49.478;8.986;2022-08-19T07:27:57;21.50;99.90
32612;DHT22;19030;49.478;8.986;2022-08-19T07:29:57;21.50;99.90
32612;DHT22;19030;49.478;8.986;2022-08-19T07:31:59;21.70;99.90
32612;DHT22;19030;49.478;8.986;2022-08-19T07:34:00;21.90;99.90
32612;DHT22;19030;49.478;8.986;2022-08-19T07:36:00;22.10;99.90
32612;DHT22;19030;49.478;8.986;2022-08-19T07:38:01;22.40;99.90
32612;DHT22;19030;49.478;8.986;2022-08-19T07:40:05;22.50;99.90
32612;DHT22;19030;49.478;8.986;2022-08-19T07:42:12;22.80;99.90
32612;DHT22;19030;49.478;8.986;2022-08-19T07:44:14;23.00;99.90
32612;DHT22;19030;49.478;8.986;2022-08-19T07:46:16;23.10;99.90
32612;DHT22;19030;49.478;8.986;2022-08-19T07:48:17;23.20;99.90
32612;DHT22;19030;49.478;8.986;2022-08-19T07:50:18;23.30;99.90
32612;DHT22;19030;49.478;8.986;2022-08-19T07:52:19;23.50;99.90
32612;DHT22;19030;49.478;8.986;2022-08-19T07:54:23;23.70;99.90
32612;DHT22;19030;49.478;8.986;2022-08-19T07:56:24;24.20;99.90
32612;DHT22;19030;49.478;8.986;2022-08-19T07:58:25;24.90;98.40
32612;DHT22;19030;49.478;8.986;2022-08-19T08:00:26;25.40;97.10
32612;DHT22;19030;49.478;8.986;2022-08-19T08:02:26;25.60;96.20
32612;DHT22;19030;49.478;8.986;2022-08-19T08:04:28;25.70;95.80
32612;DHT22;19030;49.478;8.986;2022-08-19T08:06:49;25.70;96.10
32612;DHT22;19030;49.478;8.986;2022-08-19T08:09:09;25.60;96.30
32612;DHT22;19030;49.478;8.986;2022-08-19T08:11:19;25.50;96.20
32612;DHT22;19030;49.478;8.986;2022-08-19T08:13:20;25.40;96.40
32612;DHT22;19030;49.478;8.986;2022-08-19T08:15:20;25.30;96.30
32612;DHT22;19030;49.478;8.986;2022-08-19T08:17:24;25.20;96.80
32612;DHT22;19030;49.478;8.986;2022-08-19T08:19:26;25.20;96.50
32612;DHT22;19030;49.478;8.986;2022-08-19T08:21:27;25.60;96.30
32612;DHT22;19030;49.478;8.986;2022-08-19T08:23:28;26.40;94.80
32612;DHT22;19030;49.478;8.986;2022-08-19T08:25:30;27.40;92.40
32612;DHT22;19030;49.478;8.986;2022-08-19T08:27:33;28.60;90.00
32612;DHT22;19030;49.478;8.986;2022-08-19T08:29:35;29.70;83.60
32612;DHT22;19030;49.478;8.986;2022-08-19T08:31:36;30.40;77.20
32612;DHT22;19030;49.478;8.986;2022-08-19T08:33:37;31.20;73.10
32612;DHT22;19030;49.478;8.986;2022-08-19T08:35:39;32.00;68.70
32612;DHT22;19030;49.478;8.986;2022-08-19T08:37:43;32.50;64.40
32612;DHT22;19030;49.478;8.986;2022-08-19T08:39:44;33.00;62.00
32612;DHT22;19030;49.478;8.986;2022-08-19T08:41:54;33.10;59.60
32612;DHT22;19030;49.478;8.986;2022-08-19T08:43:56;33.20;57.90
32612;DHT22;19030;49.478;8.986;2022-08-19T08:46:12;32.90;56.90
32612;DHT22;19030;49.478;8.986;2022-08-19T08:48:34;32.10;58.70
32612;DHT22;19030;49.478;8.986;2022-08-19T08:50:41;31.30;59.10
32612;DHT22;19030;49.478;8.986;2022-08-19T08:52:45;30.50;61.10
32612;DHT22;19030;49.478;8.986;2022-08-19T08:54:49;30.10;64.00
32612;DHT22;19030;49.478;8.986;2022-08-19T08:56:52;29.70;66.00
32612;DHT22;19030;49.478;8.986;2022-08-19T08:59:00;29.40;65.70
32612;DHT22;19030;49.478;8.986;2022-08-19T09:01:02;29.40;64.10
32612;DHT22;19030;49.478;8.986;2022-08-19T09:03:03;29.80;63.50
32612;DHT22;19030;49.478;8.986;2022-08-19T09:05:06;29.90;60.90
32612;DHT22;19030;49.478;8.986;2022-08-19T09:09:52;30.80;60.30
32612;DHT22;19030;49.478;8.986;2022-08-19T09:12:10;31.00;57.70
32612;DHT22;19030;49.478;8.986;2022-08-19T09:14:42;30.60;58.60
32612;DHT22;19030;49.478;8.986;2022-08-19T09:16:46;29.70;61.30
32612;DHT22;19030;49.478;8.986;2022-08-19T09:18:55;29.00;63.30
32612;DHT22;19030;49.478;8.986;2022-08-19T09:20:57;28.90;63.90
32612;DHT22;19030;49.478;8.986;2022-08-19T09:22:58;29.00;63.80
32612;DHT22;19030;49.478;8.986;2022-08-19T09:24:59;28.70;64.70
32612;DHT22;19030;49.478;8.986;2022-08-19T09:27:00;28.10;66.60
32612;DHT22;19030;49.478;8.986;2022-08-19T09:29:02;27.60;68.60
32612;DHT22;19030;49.478;8.986;2022-08-19T09:31:05;27.40;69.90
32612;DHT22;19030;49.478;8.986;2022-08-19T09:33:06;27.10;71.10
32612;DHT22;19030;49.478;8.986;2022-08-19T09:35:07;27.20;71.90
32612;DHT22;19030;49.478;8.986;2022-08-19T09:37:08;27.40;70.40
32612;DHT22;19030;49.478;8.986;2022-08-19T09:39:09;27.40;70.50
32612;DHT22;19030;49.478;8.986;2022-08-19T09:41:15;27.70;69.60
32612;DHT22;19030;49.478;8.986;2022-08-19T09:43:16;29.20;66.50
32612;DHT22;19030;49.478;8.986;2022-08-19T09:45:19;31.60;58.30
32612;DHT22;19030;49.478;8.986;2022-08-19T09:47:21;34.10;53.10
32612;DHT22;19030;49.478;8.986;2022-08-19T09:49:22;36.00;47.80
32612;DHT22;19030;49.478;8.986;2022-08-19T09:51:25;37.60;44.20
32612;DHT22;19030;49.478;8.986;2022-08-19T09:53:28;38.90;41.30
32612;DHT22;19030;49.478;8.986;2022-08-19T09:55:29;38.50;40.40
32612;DHT22;19030;49.478;8.986;2022-08-19T09:57:29;38.50;39.70
32612;DHT22;19030;49.478;8.986;2022-08-19T09:59:30;39.00;38.90
32612;DHT22;19030;49.478;8.986;2022-08-19T10:01:31;39.60;37.70
32612;DHT22;19030;49.478;8.986;2022-08-19T10:03:34;40.30;36.10
32612;DHT22;19030;49.478;8.986;2022-08-19T10:05:34;40.50;34.80
32612;DHT22;19030;49.478;8.986;2022-08-19T10:07:50;40.20;35.50
32612;DHT22;19030;49.478;8.986;2022-08-19T10:09:51;38.80;37.10
32612;DHT22;19030;49.478;8.986;2022-08-19T10:11:52;38.10;37.70
32612;DHT22;19030;49.478;8.986;2022-08-19T10:13:53;37.80;37.00
32612;DHT22;19030;49.478;8.986;2022-08-19T10:15:56;38.50;37.60
32612;DHT22;19030;49.478;8.986;2022-08-19T10:17:57;38.50;37.30
32612;DHT22;19030;49.478;8.986;2022-08-19T10:19:59;37.90;37.60
32612;DHT22;19030;49.478;8.986;2022-08-19T10:22:03;36.80;39.80
32612;DHT22;19030;49.478;8.986;2022-08-19T10:24:05;35.60;40.50
32612;DHT22;19030;49.478;8.986;2022-08-19T10:26:06;35.60;40.70
32612;DHT22;19030;49.478;8.986;2022-08-19T10:28:07;36.10;40.50
32612;DHT22;19030;49.478;8.986;2022-08-19T10:30:09;37.30;39.50
32612;DHT22;19030;49.478;8.986;2022-08-19T10:32:10;37.60;38.70
32612;DHT22;19030;49.478;8.986;2022-08-19T10:34:10;36.20;38.70
32612;DHT22;19030;49.478;8.986;2022-08-19T10:36:14;35.20;40.40
32612;DHT22;19030;49.478;8.986;2022-08-19T10:38:17;35.60;40.80
32612;DHT22;19030;49.478;8.986;2022-08-19T10:40:18;36.20;39.90
32612;DHT22;19030;49.478;8.986;2022-08-19T10:42:19;36.70;40.00
32612;DHT22;19030;49.478;8.986;2022-08-19T10:44:19;36.50;40.00
32612;DHT22;19030;49.478;8.986;2022-08-19T10:46:23;35.60;40.60
32612;DHT22;19030;49.478;8.986;2022-08-19T10:48:24;35.50;40.60
32612;DHT22;19030;49.478;8.986;2022-08-19T10:50:24;35.50;40.90
32612;DHT22;19030;49.478;8.986;2022-08-19T10:52:45;35.40;40.90
32612;DHT22;19030;49.478;8.986;2022-08-19T10:54:46;35.60;41.00
32612;DHT22;19030;49.478;8.986;2022-08-19T10:57:10;35.20;41.20
32612;DHT22;19030;49.478;8.986;2022-08-19T10:59:10;34.60;42.20
32612;DHT22;19030;49.478;8.986;2022-08-19T11:01:12;34.20;43.00
32612;DHT22;19030;49.478;8.986;2022-08-19T11:03:13;34.00;44.20
32612;DHT22;19030;49.478;8.986;2022-08-19T11:05:15;34.00;43.40
32612;DHT22;19030;49.478;8.986;2022-08-19T11:07:16;33.80;42.70
32612;DHT22;19030;49.478;8.986;2022-08-19T11:09:22;33.50;43.50
32612;DHT22;19030;49.478;8.986;2022-08-19T11:11:27;33.60;44.10
32612;DHT22;19030;49.478;8.986;2022-08-19T11:13:30;33.30;43.10
32612;DHT22;19030;49.478;8.986;2022-08-19T11:15:31;33.40;44.40
32612;DHT22;19030;49.478;8.986;2022-08-19T11:17:33;33.80;43.80
32612;DHT22;19030;49.478;8.986;2022-08-19T11:19:34;34.00;43.90
32612;DHT22;19030;49.478;8.986;2022-08-19T11:21:41;34.00;42.50
32612;DHT22;19030;49.478;8.986;2022-08-19T11:23:42;33.70;42.90
32612;DHT22;19030;49.478;8.986;2022-08-19T11:25:43;33.30;43.00
32612;DHT22;19030;49.478;8.986;2022-08-19T11:27:45;33.20;43.40
32612;DHT22;19030;49.478;8.986;2022-08-19T11:29:46;33.70;42.80
32612;DHT22;19030;49.478;8.986;2022-08-19T11:31:49;33.90;42.80
32612;DHT22;19030;49.478;8.986;2022-08-19T11:33:50;33.60;41.40
32612;DHT22;19030;49.478;8.986;2022-08-19T11:35:54;32.80;42.80
32612;DHT22;19030;49.478;8.986;2022-08-19T11:37:54;32.10;45.10
32612;DHT22;19030;49.478;8.986;2022-08-19T11:39:56;31.80;47.10
32612;DHT22;19030;49.478;8.986;2022-08-19T11:42:00;31.80;46.50
32612;DHT22;19030;49.478;8.986;2022-08-19T11:44:03;31.80;45.80
32612;DHT22;19030;49.478;8.986;2022-08-19T11:46:10;31.70;46.30
32612;DHT22;19030;49.478;8.986;2022-08-19T11:48:10;31.60;47.00
32612;DHT22;19030;49.478;8.986;2022-08-19T11:50:11;31.30;46.80
32612;DHT22;19030;49.478;8.986;2022-08-19T11:52:11;30.90;46.70
32612;DHT22;19030;49.478;8.986;2022-08-19T11:54:14;30.20;48.10
32612;DHT22;19030;49.478;8.986;2022-08-19T11:56:17;29.80;49.20
32612;DHT22;19030;49.478;8.986;2022-08-19T11:58:18;29.60;50.00
32612;DHT22;19030;49.478;8.986;2022-08-19T12:00:19;29.50;49.90
32612;DHT22;19030;49.478;8.986;2022-08-19T12:02:20;29.50;50.00
32612;DHT22;19030;49.478;8.986;2022-08-19T12:04:22;29.50;50.20
32612;DHT22;19030;49.478;8.986;2022-08-19T12:06:26;29.60;50.80
32612;DHT22;19030;49.478;8.986;2022-08-19T12:08:28;29.70;49.60
32612;DHT22;19030;49.478;8.986;2022-08-19T12:10:29;29.70;49.50
32612;DHT22;19030;49.478;8.986;2022-08-19T12:12:29;29.60;49.70
32612;DHT22;19030;49.478;8.986;2022-08-19T12:14:30;29.80;49.70
32612;DHT22;19030;49.478;8.986;2022-08-19T12:16:31;30.00;49.90
32612;DHT22;19030;49.478;8.986;2022-08-19T12:18:32;30.30;48.90
32612;DHT22;19030;49.478;8.986;2022-08-19T12:20:36;30.80;48.20
32612;DHT22;19030;49.478;8.986;2022-08-19T12:22:37;31.40;47.30
32612;DHT22;19030;49.478;8.986;2022-08-19T12:24:38;31.50;46.50
32612;DHT22;19030;49.478;8.986;2022-08-19T12:26:39;31.50;46.10
32612;DHT22;19030;49.478;8.986;2022-08-19T12:28:40;31.60;47.00
32612;DHT22;19030;49.478;8.986;2022-08-19T12:30:42;31.80;45.70
32612;DHT22;19030;49.478;8.986;2022-08-19T12:32:42;32.40;45.50
32612;DHT22;19030;49.478;8.986;2022-08-19T12:34:43;32.70;44.30
32612;DHT22;19030;49.478;8.986;2022-08-19T12:36:44;32.60;44.90
32612;DHT22;19030;49.478;8.986;2022-08-19T12:38:45;32.70;43.60
32612;DHT22;19030;49.478;8.986;2022-08-19T12:40:48;32.50;42.80
32612;DHT22;19030;49.478;8.986;2022-08-19T12:42:48;32.10;43.70
32612;DHT22;19030;49.478;8.986;2022-08-19T12:44:51;31.80;43.50
32612;DHT22;19030;49.478;8.986;2022-08-19T12:46:52;31.10;45.30
32612;DHT22;19030;49.478;8.986;2022-08-19T12:48:52;30.70;46.20
32612;DHT22;19030;49.478;8.986;2022-08-19T12:50:54;30.30;47.30
32612;DHT22;19030;49.478;8.986;2022-08-19T12:52:56;30.20;48.00
32612;DHT22;19030;49.478;8.986;2022-08-19T12:54:57;30.30;48.20
32612;DHT22;19030;49.478;8.986;2022-08-19T12:56:58;30.70;49.20